Time;durP1;ratioP1;P1;durP2;ratioP2;P2;SDS_P1;SDS_P2;PMS_P1;PMS_P2;Temp;Humidity;BMP_temperature;BMP_pressure;BME280_temperature;BME280_humidity;BME280_pressure;Samples;Min_cycle;Max_cycle;Signal;HPM_P1;HPM_P2
2021/08/09 00:01:39;;;;;;;5.50;1.85;;;16.50;87.40;;;;;;5058385;28;20501;-68
2021/08/09 00:04:05;;;;;;;4.53;1.90;;;16.40;87.40;;;;;;5038371;28;20028;-69
2021/08/09 00:06:31;;;;;;;3.85;1.80;;;16.40;87.70;;;;;;5041303;28;20025;-68
2021/08/09 00:08:59;;;;;;;2.05;1.50;;;16.40;87.90;;;;;;5039760;28;20033;-68
2021/08/09 00:11:25;;;;;;;6.60;1.50;;;16.40;87.90;;;;;;5052675;28;20040;-68
2021/08/09 00:13:50;;;;;;;3.75;1.63;;;16.40;87.80;;;;;;5045927;28;20034;-69
2021/08/09 00:16:16;;;;;;;4.13;1.60;;;16.40;88.00;;;;;;5055077;28;20024;-69
2021/08/09 00:18:46;;;;;;;5.68;1.85;;;16.30;88.00;;;;;;5021241;28;20136;-68
2021/08/09 00:21:12;;;;;;;4.07;1.90;;;16.30;88.10;;;;;;5037225;28;20060;-68
2021/08/09 00:23:38;;;;;;;3.38;1.63;;;16.30;88.10;;;;;;5031171;28;20506;-68
2021/08/09 00:26:04;;;;;;;5.22;2.20;;;16.40;88.10;;;;;;5038150;28;20029;-68
2021/08/09 00:28:30;;;;;;;6.75;2.15;;;16.30;88.20;;;;;;5043089;28;20067;-68
2021/08/09 00:30:56;;;;;;;6.82;2.42;;;16.30;88.10;;;;;;5052760;28;20110;-68
2021/08/09 00:33:21;;;;;;;5.65;2.20;;;16.30;88.10;;;;;;5040526;28;20025;-69
2021/08/09 00:35:47;;;;;;;4.57;2.00;;;16.30;88.30;;;;;;5039218;28;20029;-68
2021/08/09 00:38:13;;;;;;;5.35;2.47;;;16.20;88.40;;;;;;5037397;28;20100;-69
2021/08/09 00:40:39;;;;;;;4.50;2.00;;;16.20;88.40;;;;;;5056155;28;20142;-69
2021/08/09 00:43:04;;;;;;;2.83;1.80;;;16.20;88.40;;;;;;5051167;28;20030;-69
2021/08/09 00:45:30;;;;;;;5.55;2.10;;;16.20;88.70;;;;;;5033412;28;20025;-68
2021/08/09 00:47:56;;;;;;;5.50;2.30;;;16.20;88.60;;;;;;5032594;28;20021;-68
2021/08/09 00:50:21;;;;;;;5.35;2.50;;;16.20;88.60;;;;;;5051062;28;20025;-68
2021/08/09 00:52:47;;;;;;;4.20;2.20;;;16.20;88.60;;;;;;5048763;28;20028;-68
2021/08/09 00:55:13;;;;;;;4.72;2.20;;;16.20;88.50;;;;;;5049757;28;20033;-68
2021/08/09 00:57:40;;;;;;;5.95;2.33;;;16.20;88.50;;;;;;5050715;28;20044;-68
2021/08/09 01:00:06;;;;;;;6.43;2.20;;;16.20;88.60;;;;;;5039551;28;20399;-68
2021/08/09 01:02:32;;;;;;;6.72;1.98;;;16.20;88.60;;;;;;5051524;28;20021;-69
2021/08/09 01:05:03;;;;;;;4.03;2.13;;;16.20;88.90;;;;;;5046332;28;20528;-68
2021/08/09 01:07:35;;;;;;;4.10;1.80;;;16.20;88.80;;;;;;5049444;28;20021;-68
2021/08/09 01:10:14;;;;;;;4.13;2.20;;;16.20;88.90;;;;;;5037448;28;20064;-68
2021/08/09 01:12:52;;;;;;;5.13;1.83;;;16.30;88.90;;;;;;5023781;28;20037;-68
2021/08/09 01:15:29;;;;;;;4.93;2.00;;;16.30;89.40;;;;;;5051201;28;20032;-68
2021/08/09 01:17:58;;;;;;;6.93;2.30;;;16.20;89.40;;;;;;5055558;28;20036;-69
2021/08/09 01:20:54;;;;;;;3.55;1.80;;;16.20;89.40;;;;;;5051360;28;20032;-69
2021/08/09 01:23:41;;;;;;;4.28;1.98;;;16.20;89.50;;;;;;5059789;28;20426;-69
2021/08/09 01:26:19;;;;;;;5.53;2.10;;;16.20;89.50;;;;;;5049408;28;20048;-69
2021/08/09 01:28:46;;;;;;;4.05;2.45;;;16.30;89.50;;;;;;5030028;28;20033;-68
2021/08/09 01:31:14;;;;;;;6.20;1.95;;;16.40;89.40;;;;;;5052158;28;20481;-68
2021/08/09 01:33:41;;;;;;;4.65;2.38;;;16.30;89.30;;;;;;5061013;28;20035;-68
2021/08/09 01:36:08;;;;;;;5.72;2.30;;;16.40;89.50;;;;;;5041623;28;20502;-68
2021/08/09 01:38:34;;;;;;;5.60;2.38;;;16.40;89.20;;;;;;5059869;28;20129;-68
2021/08/09 01:41:01;;;;;;;3.88;2.10;;;16.40;89.00;;;;;;5055829;28;20048;-68
2021/08/09 01:43:28;;;;;;;6.55;2.47;;;16.40;89.00;;;;;;5055572;28;20094;-68
2021/08/09 01:45:56;;;;;;;7.22;2.25;;;16.40;89.10;;;;;;5035746;28;20028;-69
2021/08/09 01:48:22;;;;;;;5.68;2.13;;;16.40;89.00;;;;;;5052220;28;20060;-69
2021/08/09 01:50:49;;;;;;;5.68;2.10;;;16.40;88.80;;;;;;5051659;28;20789;-68
2021/08/09 01:53:16;;;;;;;6.07;2.28;;;16.40;88.90;;;;;;5057253;28;20534;-68
2021/08/09 01:55:42;;;;;;;7.13;2.22;;;16.40;88.70;;;;;;5052238;28;20060;-68
2021/08/09 01:58:07;;;;;;;7.80;2.78;;;16.40;88.70;;;;;;5039972;28;20102;-68
2021/08/09 02:00:33;;;;;;;5.18;2.42;;;16.40;88.50;;;;;;5060757;28;20124;-68
2021/08/09 02:02:59;;;;;;;7.20;3.10;;;16.40;88.60;;;;;;5042742;28;20626;-68
2021/08/09 02:05:25;;;;;;;7.63;2.55;;;16.40;88.40;;;;;;5053611;28;20033;-69
2021/08/09 02:07:52;;;;;;;6.50;3.20;;;16.40;88.30;;;;;;5034008;28;20025;-69
2021/08/09 02:10:29;;;;;;;6.75;2.20;;;16.40;88.40;;;;;;5058273;28;20394;-69
2021/08/09 02:13:23;;;;;;;4.72;2.20;;;16.40;88.40;;;;;;5038356;28;20035;-68
2021/08/09 02:15:59;;;;;;;7.63;2.45;;;16.40;88.30;;;;;;5052235;28;20037;-68
2021/08/09 02:18:43;;;;;;;4.20;1.73;;;16.40;88.30;;;;;;5039607;28;20371;-68
2021/08/09 02:21:14;;;;;;;4.28;2.03;;;16.40;88.50;;;;;;5061631;28;20080;-68
2021/08/09 02:23:46;;;;;;;4.80;2.30;;;16.40;88.60;;;;;;5043592;28;20459;-68
2021/08/09 02:26:16;;;;;;;5.55;2.53;;;16.40;88.70;;;;;;5049443;28;20503;-68
2021/08/09 02:28:46;;;;;;;7.55;2.47;;;16.40;88.30;;;;;;5059498;28;20033;-69
2021/08/09 02:31:13;;;;;;;5.53;2.10;;;16.40;88.30;;;;;;5039818;28;20476;-68
2021/08/09 02:33:41;;;;;;;8.32;2.40;;;16.40;88.60;;;;;;5056585;28;20163;-68
2021/08/09 02:36:08;;;;;;;4.97;2.42;;;16.40;88.60;;;;;;5059785;28;20025;-68
2021/08/09 02:38:34;;;;;;;4.80;2.20;;;16.40;88.80;;;;;;5058567;28;20488;-68
2021/08/09 02:41:01;;;;;;;6.07;2.40;;;16.30;88.90;;;;;;5047684;28;20036;-68
2021/08/09 02:43:28;;;;;;;7.25;2.58;;;16.40;89.20;;;;;;5058331;28;20029;-68
2021/08/09 02:45:56;;;;;;;5.55;2.30;;;16.30;89.40;;;;;;5040658;28;20481;-68
2021/08/09 02:48:22;;;;;;;5.03;2.42;;;16.30;89.50;;;;;;5058188;28;20029;-68
2021/08/09 02:50:49;;;;;;;7.97;2.33;;;16.30;89.40;;;;;;5056624;28;20600;-69
2021/08/09 02:53:18;;;;;;;4.32;2.25;;;16.30;89.50;;;;;;5051477;28;20028;-68
2021/08/09 02:55:46;;;;;;;5.28;2.08;;;16.30;89.50;;;;;;5039536;28;20040;-69
2021/08/09 02:58:12;;;;;;;5.22;2.00;;;16.20;89.70;;;;;;5048086;28;20025;-68
2021/08/09 03:00:38;;;;;;;6.13;2.28;;;16.20;89.90;;;;;;5041458;28;20111;-68
2021/08/09 03:03:04;;;;;;;3.83;2.25;;;16.20;90.00;;;;;;5043104;28;20053;-68
2021/08/09 03:05:32;;;;;;;6.72;2.85;;;16.20;90.00;;;;;;5039484;28;20035;-68
2021/08/09 03:07:59;;;;;;;6.13;2.47;;;16.10;90.20;;;;;;5052738;28;20029;-68
2021/08/09 03:10:25;;;;;;;7.03;2.97;;;16.10;90.10;;;;;;5054160;28;20106;-68
2021/08/09 03:12:57;;;;;;;4.70;2.22;;;16.10;90.20;;;;;;5038297;28;20525;-68
2021/08/09 03:15:24;;;;;;;6.47;2.90;;;16.10;90.20;;;;;;5038705;28;20032;-69
2021/08/09 03:17:50;;;;;;;7.80;2.80;;;16.00;90.40;;;;;;5048659;28;20147;-67
2021/08/09 03:20:15;;;;;;;5.70;2.50;;;16.00;90.50;;;;;;5053206;28;20570;-68
2021/08/09 03:22:41;;;;;;;7.15;2.58;;;16.00;90.50;;;;;;5057878;28;20029;-68
2021/08/09 03:25:07;;;;;;;6.57;2.70;;;16.00;90.50;;;;;;5057707;28;20039;-68
2021/08/09 03:27:33;;;;;;;6.80;2.22;;;16.00;90.50;;;;;;5048882;28;20608;-68
2021/08/09 03:29:59;;;;;;;5.13;2.83;;;16.00;90.50;;;;;;5041142;28;20032;-68
2021/08/09 03:32:25;;;;;;;8.30;3.00;;;16.00;90.50;;;;;;5055133;28;20039;-68
2021/08/09 03:34:51;;;;;;;8.00;2.92;;;16.00;90.60;;;;;;5056612;28;20166;-68
2021/08/09 03:37:16;;;;;;;6.70;2.50;;;15.90;90.70;;;;;;5046175;28;20119;-68
2021/08/09 03:39:42;;;;;;;5.00;2.58;;;15.90;90.80;;;;;;5030253;28;20037;-68
2021/08/09 03:42:09;;;;;;;5.82;2.35;;;15.90;90.80;;;;;;5053169;28;20036;-68
2021/08/09 03:44:35;;;;;;;7.78;2.53;;;15.90;90.80;;;;;;5041755;28;20040;-68
2021/08/09 03:47:01;;;;;;;8.43;2.70;;;15.90;90.80;;;;;;5046626;28;20025;-68
2021/08/09 03:49:26;;;;;;;6.82;2.72;;;15.80;90.80;;;;;;5048035;28;20171;-68
2021/08/09 03:51:52;;;;;;;8.52;3.10;;;15.80;90.90;;;;;;5051241;28;20017;-68
2021/08/09 03:54:17;;;;;;;8.50;3.28;;;15.80;90.90;;;;;;5057687;28;20506;-69
2021/08/09 03:56:43;;;;;;;10.98;2.67;;;15.80;91.00;;;;;;5054247;28;20033;-68
2021/08/09 03:59:09;;;;;;;6.78;2.97;;;15.80;91.00;;;;;;5039380;28;20043;-68
2021/08/09 04:01:39;;;;;;;6.20;2.50;;;15.80;91.20;;;;;;5035362;28;20030;-69
2021/08/09 04:04:05;;;;;;;6.15;2.63;;;15.80;91.10;;;;;;5052989;28;20078;-68
2021/08/09 04:06:32;;;;;;;6.22;2.80;;;15.80;91.10;;;;;;5036974;28;20062;-68
2021/08/09 04:08:57;;;;;;;5.88;2.83;;;15.80;91.10;;;;;;5055792;28;20106;-68
2021/08/09 04:11:23;;;;;;;6.00;2.83;;;15.80;91.10;;;;;;5053606;28;20510;-68
2021/08/09 04:13:49;;;;;;;5.78;2.55;;;15.80;91.20;;;;;;5045209;28;20111;-69
2021/08/09 04:16:15;;;;;;;7.70;2.40;;;15.80;91.20;;;;;;5032551;28;20036;-68
2021/08/09 04:18:40;;;;;;;6.70;2.53;;;15.80;91.10;;;;;;5054519;28;20403;-69
2021/08/09 04:21:06;;;;;;;7.47;2.60;;;15.80;91.30;;;;;;5046456;28;20086;-68
2021/08/09 04:23:32;;;;;;;7.03;2.40;;;15.80;91.40;;;;;;5035878;28;20474;-68
2021/08/09 04:25:57;;;;;;;6.00;2.47;;;15.80;91.20;;;;;;5038207;28;20060;-68
2021/08/09 04:28:24;;;;;;;7.90;3.03;;;15.70;91.30;;;;;;5050748;28;20551;-68
2021/08/09 04:30:49;;;;;;;7.07;2.90;;;15.80;91.20;;;;;;5030980;28;20198;-68
2021/08/09 04:33:15;;;;;;;6.85;2.70;;;15.70;91.30;;;;;;5048067;28;20111;-68
2021/08/09 04:35:41;;;;;;;8.18;2.90;;;15.70;91.30;;;;;;5043342;28;20147;-68
2021/08/09 04:38:06;;;;;;;8.25;3.38;;;15.80;91.30;;;;;;5052942;28;20391;-68
2021/08/09 04:40:32;;;;;;;6.60;3.00;;;15.70;91.30;;;;;;5056603;28;20039;-69
2021/08/09 04:42:58;;;;;;;8.95;3.20;;;15.70;91.50;;;;;;5053654;28;20607;-69
2021/08/09 04:45:26;;;;;;;9.60;3.00;;;15.70;91.30;;;;;;5050261;28;20040;-69
2021/08/09 04:47:52;;;;;;;10.43;3.22;;;15.70;91.70;;;;;;5045105;28;20029;-69
2021/08/09 04:50:18;;;;;;;7.82;2.80;;;15.70;91.30;;;;;;5035303;28;20045;-69
2021/08/09 04:52:44;;;;;;;6.97;2.95;;;15.70;91.40;;;;;;5032423;28;20051;-68
2021/08/09 04:55:11;;;;;;;6.30;2.72;;;15.70;91.50;;;;;;5053900;28;20468;-69
2021/08/09 04:57:37;;;;;;;7.93;2.80;;;15.70;91.40;;;;;;5051957;28;20511;-69
2021/08/09 05:00:04;;;;;;;8.23;2.95;;;15.70;91.30;;;;;;5057491;28;20100;-68
2021/08/09 05:02:30;;;;;;;5.28;3.03;;;15.80;91.30;;;;;;5055186;28;20143;-68
2021/08/09 05:04:57;;;;;;;8.73;3.00;;;15.80;91.30;;;;;;5039516;28;20107;-68
2021/08/09 05:07:23;;;;;;;5.68;3.00;;;15.80;91.40;;;;;;5021679;28;20027;-69
2021/08/09 05:09:49;;;;;;;5.88;2.80;;;15.80;91.30;;;;;;5050365;28;20489;-68
2021/08/09 05:12:14;;;;;;;7.38;2.88;;;15.80;91.30;;;;;;5059352;28;20028;-69
2021/08/09 05:14:40;;;;;;;6.07;2.78;;;15.80;91.30;;;;;;5053012;28;20032;-69
2021/08/09 05:17:06;;;;;;;6.82;2.85;;;15.90;91.30;;;;;;5039658;28;20029;-69
2021/08/09 05:19:33;;;;;;;5.28;2.65;;;15.90;91.30;;;;;;5059778;28;20036;-69
2021/08/09 05:21:59;;;;;;;7.85;2.83;;;15.90;91.10;;;;;;5058413;28;20033;-69
2021/08/09 05:24:25;;;;;;;8.82;3.40;;;15.90;91.20;;;;;;5060181;28;20088;-70
2021/08/09 05:26:51;;;;;;;5.57;2.38;;;15.90;91.10;;;;;;5041280;28;20107;-70
2021/08/09 05:29:16;;;;;;;5.03;2.70;;;15.90;91.20;;;;;;5059346;28;20032;-70
2021/08/09 05:31:42;;;;;;;7.07;2.45;;;15.90;91.20;;;;;;5052795;28;20020;-69
2021/08/09 05:34:08;;;;;;;6.90;3.40;;;16.00;91.20;;;;;;5060662;28;20021;-69
2021/08/09 05:36:36;;;;;;;7.10;2.42;;;16.00;91.10;;;;;;5057437;28;20120;-70
2021/08/09 05:39:03;;;;;;;8.18;2.88;;;16.00;91.20;;;;;;5042210;28;20039;-69
2021/08/09 05:41:29;;;;;;;4.65;2.30;;;16.00;91.00;;;;;;5047942;28;20108;-68
2021/08/09 05:43:55;;;;;;;8.10;2.60;;;16.10;91.20;;;;;;5058864;28;20617;-69
2021/08/09 05:46:21;;;;;;;4.13;2.40;;;16.10;91.20;;;;;;5051118;28;21015;-68
2021/08/09 05:48:46;;;;;;;4.47;2.30;;;16.10;91.30;;;;;;5060007;28;20032;-68
2021/08/09 05:51:12;;;;;;;3.92;2.20;;;16.20;91.20;;;;;;5049495;28;20021;-69
2021/08/09 05:53:37;;;;;;;5.63;2.33;;;16.10;91.20;;;;;;5054684;28;20037;-69
2021/08/09 05:56:03;;;;;;;4.55;2.30;;;16.20;91.20;;;;;;5034402;28;20044;-70
2021/08/09 05:58:29;;;;;;;3.22;2.20;;;16.20;91.10;;;;;;5041237;28;20078;-70
2021/08/09 06:00:55;;;;;;;5.18;2.35;;;16.20;91.10;;;;;;5051618;28;20024;-69
2021/08/09 06:03:24;;;;;;;8.85;2.65;;;16.30;91.00;;;;;;5058283;28;20031;-69
2021/08/09 06:05:52;;;;;;;4.88;2.05;;;16.30;91.00;;;;;;5058230;28;20926;-69
2021/08/09 06:08:18;;;;;;;6.85;2.40;;;16.30;90.90;;;;;;5059240;28;20065;-72
2021/08/09 06:10:44;;;;;;;6.55;2.38;;;16.30;90.80;;;;;;5047217;28;20499;-69
2021/08/09 06:13:09;;;;;;;6.88;2.33;;;16.40;91.00;;;;;;5032897;28;20033;-70
2021/08/09 06:15:35;;;;;;;6.85;2.35;;;16.40;90.90;;;;;;5058005;28;20066;-70
2021/08/09 06:18:01;;;;;;;11.85;2.75;;;16.40;90.90;;;;;;5054400;28;20079;-71
2021/08/09 06:20:26;;;;;;;6.82;2.60;;;16.50;90.90;;;;;;5059142;28;20024;-71
2021/08/09 06:22:52;;;;;;;7.65;2.15;;;16.60;90.90;;;;;;5055475;28;20109;-71
2021/08/09 06:25:18;;;;;;;6.13;2.22;;;16.60;90.80;;;;;;5044060;28;20024;-71
2021/08/09 06:27:44;;;;;;;4.82;2.30;;;16.60;90.90;;;;;;5052856;28;20039;-73
2021/08/09 06:30:11;;;;;;;8.18;3.03;;;16.70;90.80;;;;;;5041957;28;20083;-71
2021/08/09 06:32:36;;;;;;;8.77;2.83;;;16.70;90.70;;;;;;5055594;28;20064;-72
2021/08/09 06:35:04;;;;;;;8.30;3.10;;;16.80;90.60;;;;;;5032848;28;20106;-72
2021/08/09 06:37:29;;;;;;;10.82;2.83;;;16.80;90.70;;;;;;5035939;28;20029;-72
2021/08/09 06:39:55;;;;;;;8.68;2.70;;;16.80;90.50;;;;;;5046481;28;20608;-72
2021/08/09 06:42:21;;;;;;;5.85;2.25;;;16.90;90.40;;;;;;5041062;28;20078;-73
2021/08/09 06:44:47;;;;;;;6.07;2.47;;;16.90;90.50;;;;;;5036027;28;20432;-73
2021/08/09 06:47:13;;;;;;;9.60;2.75;;;17.00;90.30;;;;;;5036405;28;20373;-72
2021/08/09 06:49:39;;;;;;;7.55;2.38;;;17.00;90.30;;;;;;5059125;28;20040;-72
2021/08/09 06:52:05;;;;;;;8.15;2.08;;;17.10;90.40;;;;;;5040660;28;20036;-72
2021/08/09 06:54:31;;;;;;;8.25;2.90;;;17.10;90.40;;;;;;5022670;28;20087;-72
2021/08/09 06:56:57;;;;;;;6.57;2.60;;;17.20;90.20;;;;;;5054011;28;20483;-70
2021/08/09 06:59:22;;;;;;;6.00;2.55;;;17.30;90.10;;;;;;5047790;28;20487;-70
2021/08/09 07:01:48;;;;;;;8.65;2.80;;;17.40;90.20;;;;;;5034525;28;20021;-71
2021/08/09 07:04:14;;;;;;;9.25;2.55;;;17.40;90.20;;;;;;5058694;28;20532;-71
2021/08/09 07:06:40;;;;;;;5.20;2.20;;;17.40;90.10;;;;;;5039830;28;20055;-70
2021/08/09 07:09:05;;;;;;;8.18;2.70;;;17.50;90.10;;;;;;5054784;28;20509;-70
2021/08/09 07:11:31;;;;;;;7.20;2.58;;;17.50;89.70;;;;;;5037806;28;20037;-70
2021/08/09 07:13:57;;;;;;;10.43;2.67;;;17.50;89.40;;;;;;5036127;28;20037;-70
2021/08/09 07:16:24;;;;;;;5.40;2.20;;;17.50;89.30;;;;;;5048189;28;20115;-71
2021/08/09 07:18:51;;;;;;;6.70;2.78;;;17.50;89.40;;;;;;5040189;28;20033;-70
2021/08/09 07:21:16;;;;;;;7.97;2.83;;;17.50;89.20;;;;;;5052068;28;20104;-70
2021/08/09 07:23:43;;;;;;;10.82;2.60;;;17.50;90.00;;;;;;5049926;28;20112;-70
2021/08/09 07:26:09;;;;;;;8.18;2.53;;;17.50;89.40;;;;;;5043154;28;20061;-69
2021/08/09 07:28:35;;;;;;;7.35;2.58;;;17.50;89.60;;;;;;5048562;28;20485;-70
2021/08/09 07:31:01;;;;;;;6.35;2.33;;;17.60;89.70;;;;;;5047605;28;20128;-69
2021/08/09 07:33:26;;;;;;;6.93;2.25;;;17.60;89.40;;;;;;5037666;28;20467;-70
2021/08/09 07:35:53;;;;;;;7.28;2.20;;;17.60;89.40;;;;;;5049914;28;20087;-69
2021/08/09 07:38:19;;;;;;;11.93;2.53;;;17.70;89.90;;;;;;5041778;28;20060;-70
2021/08/09 07:40:45;;;;;;;9.13;2.55;;;17.80;89.40;;;;;;5031442;28;20056;-69
2021/08/09 07:43:10;;;;;;;7.40;2.63;;;17.90;88.70;;;;;;5054998;28;20033;-69
2021/08/09 07:45:37;;;;;;;6.47;2.80;;;17.80;89.00;;;;;;5040822;28;20359;-70
2021/08/09 07:48:03;;;;;;;7.13;2.25;;;17.90;88.80;;;;;;5038003;28;20029;-69
2021/08/09 07:50:30;;;;;;;5.55;2.15;;;17.90;89.00;;;;;;5055968;28;20074;-69
2021/08/09 07:52:55;;;;;;;6.07;2.38;;;18.00;89.10;;;;;;5038693;28;20060;-70
2021/08/09 07:55:21;;;;;;;6.28;2.53;;;18.00;88.90;;;;;;5047806;28;20060;-70
2021/08/09 07:57:47;;;;;;;6.70;2.40;;;18.10;88.80;;;;;;5052599;28;20029;-70
2021/08/09 08:00:15;;;;;;;7.82;2.45;;;18.10;88.00;;;;;;5033067;28;20425;-69
2021/08/09 08:02:41;;;;;;;4.85;2.33;;;18.10;88.00;;;;;;5050456;28;20052;-69
2021/08/09 08:05:07;;;;;;;8.10;2.63;;;18.10;88.40;;;;;;5034548;28;20020;-70
2021/08/09 08:07:33;;;;;;;5.57;2.33;;;18.10;88.40;;;;;;5040736;28;20155;-69
2021/08/09 08:10:01;;;;;;;6.03;2.50;;;18.10;88.60;;;;;;5053443;28;20029;-68
2021/08/09 08:12:27;;;;;;;13.68;3.17;;;18.10;88.10;;;;;;5052332;28;20032;-69
2021/08/09 08:14:52;;;;;;;9.15;2.72;;;18.00;87.80;;;;;;5053383;28;20036;-68
2021/08/09 08:17:18;;;;;;;9.20;2.10;;;18.10;88.80;;;;;;5050122;28;20355;-68
2021/08/09 08:19:44;;;;;;;4.97;2.42;;;18.10;88.50;;;;;;5052548;28;20063;-68
2021/08/09 08:22:09;;;;;;;5.07;2.17;;;18.20;88.40;;;;;;5048417;28;20146;-69
2021/08/09 08:24:35;;;;;;;9.23;3.35;;;18.30;88.30;;;;;;5051287;28;20450;-69
2021/08/09 08:27:01;;;;;;;7.57;2.90;;;18.30;87.80;;;;;;5033799;28;20504;-67
2021/08/09 08:29:27;;;;;;;8.50;3.08;;;18.40;87.60;;;;;;5045862;28;20029;-68
2021/08/09 08:31:52;;;;;;;6.55;2.50;;;18.40;86.70;;;;;;5048365;28;20071;-68
2021/08/09 08:34:18;;;;;;;8.50;2.67;;;18.40;87.10;;;;;;5046473;28;20029;-69
2021/08/09 08:36:45;;;;;;;5.47;2.50;;;18.40;86.80;;;;;;5038420;28;20044;-68
2021/08/09 08:39:11;;;;;;;12.40;3.40;;;18.40;87.30;;;;;;5054388;28;20028;-68
2021/08/09 08:41:44;;;;;;;8.60;2.47;;;18.40;87.30;;;;;;5052888;28;20036;-68
2021/08/09 08:44:15;;;;;;;8.00;3.00;;;18.50;87.00;;;;;;5039426;28;20091;-70
2021/08/09 08:46:42;;;;;;;7.72;2.72;;;18.50;86.60;;;;;;5047847;28;20029;-68
2021/08/09 08:49:13;;;;;;;8.25;2.83;;;18.50;86.50;;;;;;5054571;28;20037;-69
2021/08/09 08:51:42;;;;;;;6.90;2.60;;;18.60;85.70;;;;;;5056944;28;20037;-68
2021/08/09 08:54:07;;;;;;;10.05;3.38;;;18.60;86.50;;;;;;5052135;28;20033;-68
2021/08/09 08:56:36;;;;;;;12.73;3.03;;;18.70;85.90;;;;;;5045321;28;20060;-68
2021/08/09 08:59:03;;;;;;;6.75;2.95;;;18.80;86.10;;;;;;5051142;28;20032;-68
2021/08/09 09:01:38;;;;;;;8.98;2.47;;;18.90;86.20;;;;;;5051418;28;20025;-69
2021/08/09 09:04:20;;;;;;;5.63;2.33;;;19.10;86.00;;;;;;5033079;28;20064;-68
2021/08/09 09:06:45;;;;;;;8.27;2.80;;;19.30;84.90;;;;;;5036833;28;20025;-68
2021/08/09 09:09:22;;;;;;;7.15;2.88;;;19.30;83.60;;;;;;5055014;28;20482;-69
2021/08/09 09:11:48;;;;;;;7.20;2.42;;;19.30;83.70;;;;;;5046674;28;20079;-68
2021/08/09 09:14:22;;;;;;;7.72;2.30;;;19.20;84.40;;;;;;5049583;28;20037;-68
2021/08/09 09:16:50;;;;;;;8.00;2.92;;;19.20;83.60;;;;;;5029555;28;20471;-68
2021/08/09 09:19:38;;;;;;;7.80;2.28;;;19.30;82.20;;;;;;5037089;28;20154;-68
2021/08/09 09:22:07;;;;;;;7.32;2.47;;;19.50;82.20;;;;;;5053795;28;20030;-67
2021/08/09 09:24:34;;;;;;;4.63;2.03;;;19.60;82.40;;;;;;5050860;28;20471;-68
2021/08/09 09:27:08;;;;;;;6.05;2.13;;;19.50;83.40;;;;;;5057553;28;20386;-71
2021/08/09 09:29:39;;;;;;;6.10;2.15;;;19.60;81.80;;;;;;5053028;28;20082;-68
2021/08/09 09:32:20;;;;;;;7.57;2.70;;;19.50;83.00;;;;;;5045981;28;20029;-67
2021/08/09 09:34:56;;;;;;;10.48;2.50;;;19.60;81.70;;;;;;5049246;28;20107;-69
2021/08/09 09:37:25;;;;;;;7.22;2.30;;;19.70;81.40;;;;;;5048625;28;20390;-68
2021/08/09 09:39:51;;;;;;;9.18;2.85;;;19.70;81.00;;;;;;5043204;28;20029;-69
2021/08/09 09:42:17;;;;;;;8.68;2.40;;;19.80;80.00;;;;;;5039940;28;20041;-68
2021/08/09 09:44:43;;;;;;;8.10;2.78;;;19.80;80.30;;;;;;5056559;28;20387;-68
2021/08/09 09:47:32;;;;;;;7.78;2.25;;;19.90;80.70;;;;;;5050026;28;20122;-68
2021/08/09 09:49:59;;;;;;;10.20;2.67;;;19.90;80.80;;;;;;5045611;28;20115;-69
2021/08/09 09:52:28;;;;;;;6.57;2.20;;;19.90;79.70;;;;;;5053328;28;20059;-68
2021/08/09 09:55:03;;;;;;;5.82;1.98;;;19.90;80.10;;;;;;5053599;28;20107;-68
2021/08/09 09:57:32;;;;;;;5.90;2.05;;;19.90;79.40;;;;;;5053922;28;20037;-68
2021/08/09 09:59:59;;;;;;;6.82;1.95;;;19.90;77.60;;;;;;5056660;28;20021;-69
2021/08/09 10:02:26;;;;;;;5.32;1.60;;;20.00;79.30;;;;;;5032576;28;20484;-69
2021/08/09 10:04:52;;;;;;;4.82;1.80;;;20.10;77.80;;;;;;5054638;28;20037;-68
2021/08/09 10:07:25;;;;;;;7.38;2.28;;;20.20;77.60;;;;;;5035369;28;20188;-69
2021/08/09 10:09:53;;;;;;;6.05;1.77;;;20.20;77.50;;;;;;5059132;28;20412;-69
2021/08/09 10:12:24;;;;;;;7.50;2.40;;;20.30;74.70;;;;;;5048243;28;20036;-69
2021/08/09 10:14:51;;;;;;;4.45;1.50;;;20.40;74.30;;;;;;5037329;28;20509;-69
2021/08/09 10:17:18;;;;;;;2.63;1.30;;;20.50;74.20;;;;;;5042985;28;20107;-71
2021/08/09 10:19:49;;;;;;;6.13;1.48;;;20.60;74.00;;;;;;5060905;28;20036;-67
2021/08/09 10:22:19;;;;;;;;;;;20.80;72.20;;;;;;5055393;28;20033;-70
2021/08/09 10:24:45;;;;;;;4.15;1.55;;;20.80;71.50;;;;;;5047481;28;20481;-67
2021/08/09 10:27:11;;;;;;;5.10;1.30;;;20.80;73.20;;;;;;5047218;28;20033;-68
2021/08/09 10:29:58;;;;;;;4.75;1.83;;;20.90;73.20;;;;;;5059832;28;20078;-67
2021/08/09 10:32:24;;;;;;;4.07;1.40;;;21.00;73.20;;;;;;5053831;28;20494;-69
2021/08/09 10:34:50;;;;;;;6.28;1.42;;;21.10;72.00;;;;;;5052314;28;20061;-69
2021/08/09 10:37:17;;;;;;;3.67;1.92;;;21.10;72.00;;;;;;5054400;28;20536;-69
2021/08/09 10:39:51;;;;;;;7.38;3.00;;;21.30;72.10;;;;;;5056706;28;20464;-69
2021/08/09 10:42:40;;;;;;;2.92;1.58;;;21.40;70.50;;;;;;5048344;28;20048;-70
2021/08/09 10:45:11;;;;;;;5.30;1.58;;;21.40;70.90;;;;;;5055450;28;20020;-70
2021/08/09 10:47:46;;;;;;;4.50;1.40;;;21.60;69.30;;;;;;5041583;28;20040;-69
2021/08/09 10:50:26;;;;;;;2.25;1.40;;;21.70;71.00;;;;;;5037130;28;20051;-69
2021/08/09 10:52:54;;;;;;;4.70;1.73;;;21.70;71.00;;;;;;5054548;28;20054;-68
2021/08/09 10:55:35;;;;;;;4.78;1.40;;;21.70;69.80;;;;;;5052058;28;20586;-68
2021/08/09 10:58:05;;;;;;;3.90;1.30;;;21.70;69.90;;;;;;5049833;28;20036;-69
2021/08/09 11:00:42;;;;;;;3.55;1.60;;;21.80;70.70;;;;;;5053396;28;20035;-68
2021/08/09 11:03:13;;;;;;;3.90;1.27;;;22.00;71.10;;;;;;5057211;28;20032;-69
2021/08/09 11:05:39;;;;;;;;;;;22.10;70.30;;;;;;5043828;28;20028;-69
2021/08/09 11:08:29;;;;;;;3.42;1.50;;;22.10;67.60;;;;;;5043000;28;19923;-69
2021/08/09 11:10:59;;;;;;;4.72;1.48;;;22.30;67.70;;;;;;5048901;28;20043;-69
2021/08/09 11:13:26;;;;;;;3.90;1.57;;;22.20;68.40;;;;;;5058704;28;20143;-69
2021/08/09 11:15:57;;;;;;;6.03;1.50;;;22.10;68.20;;;;;;5056543;28;20029;-69
2021/08/09 11:18:24;;;;;;;7.07;1.38;;;21.80;68.90;;;;;;5038440;28;20029;-68
2021/08/09 11:21:09;;;;;;;4.05;1.60;;;21.70;69.30;;;;;;5058045;28;20029;-68
2021/08/09 11:23:40;;;;;;;3.88;1.33;;;21.60;70.20;;;;;;5040282;28;20326;-69
2021/08/09 11:26:17;;;;;;;6.13;1.33;;;21.60;71.20;;;;;;5032309;28;20108;-70
2021/08/09 11:28:42;;;;;;;4.32;1.25;;;21.60;69.30;;;;;;5050547;28;20026;-69
2021/08/09 11:31:08;;;;;;;3.33;1.38;;;21.80;70.40;;;;;;5034713;28;20025;-69
2021/08/09 11:33:36;;;;;;;2.92;1.20;;;22.00;70.40;;;;;;5046419;28;20040;-69
2021/08/09 11:36:10;;;;;;;4.05;1.50;;;22.30;69.40;;;;;;5034862;28;20032;-69
2021/08/09 11:39:01;;;;;;;4.63;1.50;;;22.70;67.90;;;;;;5050648;28;20115;-69
2021/08/09 11:41:29;;;;;;;2.15;1.13;;;22.90;67.30;;;;;;5040104;28;20032;-69
2021/08/09 11:44:07;;;;;;;3.80;1.17;;;23.10;65.40;;;;;;5030213;28;20025;-69
2021/08/09 11:46:45;;;;;;;5.53;1.85;;;23.50;65.30;;;;;;5055014;28;20032;-69
2021/08/09 11:49:10;;;;;;;3.72;1.77;;;23.60;64.40;;;;;;5040011;28;20028;-69
2021/08/09 11:51:36;;;;;;;3.33;1.23;;;23.40;63.80;;;;;;5056552;28;20063;-69
2021/08/09 11:54:02;;;;;;;4.80;1.73;;;23.50;62.90;;;;;;5050687;28;20038;-69
2021/08/09 11:56:33;;;;;;;3.85;1.60;;;23.70;62.30;;;;;;5044655;28;20091;-68
2021/08/09 11:59:09;;;;;;;5.55;1.85;;;24.00;61.20;;;;;;5052531;28;20086;-69
2021/08/09 12:01:39;;;;;;;2.78;1.25;;;23.80;61.90;;;;;;5036855;28;20041;-68
2021/08/09 12:04:13;;;;;;;4.32;1.60;;;24.00;62.10;;;;;;5052494;28;20024;-68
2021/08/09 12:06:59;;;;;;;4.55;1.55;;;24.10;60.30;;;;;;5054942;28;20150;-69
2021/08/09 12:09:39;;;;;;;4.35;1.50;;;24.10;60.60;;;;;;5052481;28;20155;-68
2021/08/09 12:12:07;;;;;;;4.82;1.50;;;23.80;59.00;;;;;;5049539;28;20090;-69
2021/08/09 12:14:33;;;;;;;47.58;24.50;;;23.60;60.70;;;;;;5058680;28;20173;-69
2021/08/09 12:17:01;;;;;;;19.05;9.13;;;23.30;61.80;;;;;;5053795;28;20042;-68
2021/08/09 12:19:36;;;;;;;28.70;13.85;;;23.10;62.70;;;;;;5050883;28;20143;-68
2021/08/09 12:22:13;;;;;;;15.02;7.07;;;22.90;64.10;;;;;;5025949;28;20029;-69
2021/08/09 12:24:40;;;;;;;24.88;10.95;;;22.70;63.30;;;;;;5054469;28;20484;-68
2021/08/09 12:27:22;;;;;;;7.75;2.42;;;22.60;64.30;;;;;;5050406;28;20439;-69
2021/08/09 12:30:10;;;;;;;24.67;12.13;;;22.40;63.30;;;;;;5051509;28;20108;-67
2021/08/09 12:32:39;;;;;;;11.43;4.25;;;22.30;64.70;;;;;;5047500;28;20037;-69
2021/08/09 12:35:07;;;;;;;8.10;3.00;;;22.10;65.40;;;;;;5044571;28;20033;-69
2021/08/09 12:37:35;;;;;;;4.90;2.33;;;22.30;66.10;;;;;;5049514;28;20037;-68
2021/08/09 12:40:10;;;;;;;47.20;35.45;;;22.80;65.30;;;;;;5037401;28;20481;-68
2021/08/09 12:42:36;;;;;;;224.52;153.63;;;23.20;64.50;;;;;;5049737;28;20032;-67
2021/08/09 12:45:02;;;;;;;23.13;15.38;;;23.90;63.70;;;;;;5054252;28;20020;-67
2021/08/09 12:47:28;;;;;;;8.60;5.47;;;24.30;60.40;;;;;;5057598;28;20025;-68
2021/08/09 12:49:53;;;;;;;4.75;2.95;;;24.40;59.90;;;;;;5053175;28;20483;-71
2021/08/09 12:52:19;;;;;;;5.72;1.85;;;24.10;60.40;;;;;;5051479;28;20089;-69